Time;durP1;ratioP1;P1;durP2;ratioP2;P2;SDS_P1;SDS_P2;PMS_P1;PMS_P2;Temp;Humidity;BMP_temperature;BMP_pressure;BME280_temperature;BME280_humidity;BME280_pressure;Samples;Min_cycle;Max_cycle;Signal;HPM_P1;HPM_P2
2022/10/19 00:01:00;;;;;;;7.63;5.30;;;;;;;6.74;100.00;102764.91;5061430;28;20376;-62
2022/10/19 00:03:26;;;;;;;8.63;6.03;;;;;;;6.74;100.00;102764.91;5058913;28;20028;-62
2022/10/19 00:05:51;;;;;;;7.38;5.10;;;;;;;6.72;100.00;102766.47;5081773;28;20100;-62
2022/10/19 00:08:16;;;;;;;11.10;5.53;;;;;;;6.70;100.00;102763.78;5064320;28;20048;-62
2022/10/19 00:10:41;;;;;;;7.13;5.00;;;;;;;6.68;100.00;102762.75;5068156;28;20021;-61
2022/10/19 00:13:07;;;;;;;6.22;5.15;;;;;;;6.66;100.00;102766.88;5067012;28;20106;-62
2022/10/19 00:15:32;;;;;;;6.30;4.75;;;;;;;6.65;100.00;102759.03;5067697;28;20597;-62
2022/10/19 00:17:57;;;;;;;6.22;5.13;;;;;;;6.61;100.00;102757.91;5068557;28;20103;-61
2022/10/19 00:20:23;;;;;;;7.55;4.68;;;;;;;6.58;100.00;102757.66;5066312;28;20024;-62
2022/10/19 00:22:49;;;;;;;6.70;4.70;;;;;;;6.56;100.00;102757.53;5053539;28;20160;-62
2022/10/19 00:25:15;;;;;;;7.88;5.20;;;;;;;6.54;100.00;102764.25;5067461;28;20029;-62
2022/10/19 00:27:40;;;;;;;6.95;4.63;;;;;;;6.53;100.00;102758.97;5067284;28;20032;-62
2022/10/19 00:30:06;;;;;;;9.18;5.50;;;;;;;6.51;100.00;102761.44;5067244;28;20468;-62
2022/10/19 00:32:31;;;;;;;8.98;4.82;;;;;;;6.49;100.00;102752.69;5066983;28;20032;-62
2022/10/19 00:34:56;;;;;;;11.68;5.05;;;;;;;6.50;100.00;102751.88;5060994;28;20029;-62
2022/10/19 00:37:21;;;;;;;8.50;5.10;;;;;;;6.49;100.00;102743.25;5066923;28;20037;-62
2022/10/19 00:39:47;;;;;;;9.52;5.38;;;;;;;6.53;100.00;102741.81;5063309;28;20299;-62
2022/10/19 00:42:12;;;;;;;7.32;5.25;;;;;;;6.58;100.00;102739.63;5067037;28;20112;-61
2022/10/19 00:44:37;;;;;;;9.68;5.75;;;;;;;6.61;100.00;102747.59;5062815;28;20713;-62
2022/10/19 00:47:06;;;;;;;8.98;5.80;;;;;;;6.62;100.00;102749.38;5067004;28;20136;-63
2022/10/19 00:49:36;;;;;;;8.77;6.25;;;;;;;6.65;100.00;102746.16;5053125;28;20036;-61
2022/10/19 00:52:06;;;;;;;8.40;5.45;;;;;;;6.64;100.00;102747.81;5067427;28;20119;-62
2022/10/19 00:54:35;;;;;;;7.90;5.13;;;;;;;6.63;100.00;102751.19;5053026;28;20162;-62
2022/10/19 00:57:02;;;;;;;8.63;5.55;;;;;;;6.63;100.00;102751.19;5066840;28;20028;-62
2022/10/19 00:59:30;;;;;;;7.20;5.00;;;;;;;6.69;100.00;102753.34;5055672;28;20028;-62
2022/10/19 01:01:57;;;;;;;8.82;5.05;;;;;;;6.69;100.00;102756.81;5066555;28;20023;-61
2022/10/19 01:04:25;;;;;;;9.77;5.57;;;;;;;6.67;100.00;102753.25;5056313;28;20025;-62
2022/10/19 01:06:52;;;;;;;9.02;5.63;;;;;;;6.67;100.00;102758.41;5064433;28;20338;-62
2022/10/19 01:09:18;;;;;;;7.25;5.90;;;;;;;6.68;100.00;102748.97;5054673;28;20473;-63
2022/10/19 01:11:55;;;;;;;10.65;6.03;;;;;;;6.67;100.00;102748.09;5061134;28;20102;-63
2022/10/19 01:14:33;;;;;;;9.15;5.70;;;;;;;6.67;100.00;102750.66;5060280;28;20444;-63
2022/10/19 01:17:10;;;;;;;7.03;5.40;;;;;;;6.67;100.00;102747.19;5063677;28;20027;-62
2022/10/19 01:20:03;;;;;;;8.82;5.55;;;;;;;6.69;100.00;102750.78;5065129;28;20029;-62
2022/10/19 01:22:44;;;;;;;7.25;5.78;;;;;;;6.67;100.00;102742.94;5057611;28;20054;-63
2022/10/19 01:25:30;;;;;;;10.05;6.28;;;;;;;6.70;100.00;102743.16;5053640;28;20104;-64
2022/10/19 01:28:31;;;;;;;10.13;6.88;;;;;;;6.75;100.00;102758.06;5047320;28;20029;-64
2022/10/19 01:31:18;;;;;;;13.30;7.20;;;;;;;6.78;100.00;102755.75;5056312;28;20505;-62
2022/10/19 01:33:55;;;;;;;8.15;6.05;;;;;;;6.78;100.00;102748.03;5070823;28;20024;-64
2022/10/19 01:36:29;;;;;;;7.90;5.90;;;;;;;6.76;100.00;102741.84;5063761;28;20040;-63
2022/10/19 01:39:30;;;;;;;8.07;5.20;;;;;;;6.76;100.00;102731.53;5065858;28;20052;-65
2022/10/19 01:42:19;;;;;;;11.20;5.72;;;;;;;6.78;100.00;102735.13;5061092;28;20048;-62
2022/10/19 01:44:49;;;;;;;10.15;5.95;;;;;;;6.78;100.00;102741.16;5050894;28;20039;-62
2022/10/19 01:47:24;;;;;;;8.43;6.27;;;;;;;6.79;100.00;102736.91;5064464;28;20020;-62
2022/10/19 01:50:02;;;;;;;12.40;7.15;;;;;;;6.80;100.00;102738.75;5050635;28;20275;-64
2022/10/19 01:52:28;;;;;;;9.02;6.22;;;;;;;6.82;100.00;102735.47;5064519;28;20067;-62
2022/10/19 01:54:57;;;;;;;8.75;6.78;;;;;;;6.84;100.00;102739.09;5069996;28;20028;-63
2022/10/19 01:57:28;;;;;;;9.40;7.28;;;;;;;6.86;100.00;102744.34;5063266;28;20024;-62
2022/10/19 01:59:55;;;;;;;12.95;6.68;;;;;;;6.81;100.00;102736.28;5070247;28;20020;-63
2022/10/19 02:02:22;;;;;;;9.02;6.47;;;;;;;6.82;100.00;102732.00;5070833;28;20101;-63
2022/10/19 02:04:49;;;;;;;9.25;6.00;;;;;;;6.84;100.00;102727.88;5056292;28;20023;-63
2022/10/19 02:07:15;;;;;;;11.20;6.28;;;;;;;6.82;100.00;102721.69;5063744;28;20039;-67
2022/10/19 02:09:41;;;;;;;9.80;5.97;;;;;;;6.81;100.00;102714.75;5054204;28;20017;-63
2022/10/19 02:12:09;;;;;;;8.95;5.72;;;;;;;6.78;100.00;102709.38;5059027;28;20028;-63
2022/10/19 02:14:45;;;;;;;8.70;6.25;;;;;;;6.76;100.00;102706.69;5070364;28;20028;-63
2022/10/19 02:17:14;;;;;;;8.60;6.68;;;;;;;6.80;100.00;102702.66;5070657;28;20606;-64
2022/10/19 02:19:39;;;;;;;9.23;6.25;;;;;;;6.80;100.00;102697.50;5070278;28;20033;-63
2022/10/19 02:22:05;;;;;;;8.55;6.90;;;;;;;6.78;100.00;102693.91;5063605;28;20083;-63
2022/10/19 02:24:30;;;;;;;9.30;5.15;;;;;;;6.76;100.00;102695.47;5070118;28;20032;-64
2022/10/19 02:26:56;;;;;;;8.48;5.65;;;;;;;6.75;100.00;102693.66;5069398;28;20089;-63
2022/10/19 02:29:22;;;;;;;7.38;6.20;;;;;;;6.75;100.00;102688.50;5054609;28;20025;-63
2022/10/19 02:31:47;;;;;;;9.52;5.43;;;;;;;6.72;100.00;102690.06;5069823;28;20021;-63
2022/10/19 02:34:13;;;;;;;8.43;5.57;;;;;;;6.68;100.00;102681.97;5051551;28;20550;-63
2022/10/19 02:36:38;;;;;;;10.93;6.15;;;;;;;6.63;100.00;102679.06;5049569;28;20465;-63
2022/10/19 02:39:05;;;;;;;9.38;5.20;;;;;;;6.61;100.00;102672.88;5051215;28;20392;-64
2022/10/19 02:41:41;;;;;;;6.15;5.13;;;;;;;6.57;100.00;102674.31;5060951;28;20064;-64
2022/10/19 02:44:17;;;;;;;8.38;5.25;;;;;;;6.56;100.00;102674.19;5065504;28;20541;-63
2022/10/19 02:46:53;;;;;;;10.23;6.03;;;;;;;6.53;100.00;102677.41;5069605;28;20495;-63
2022/10/19 02:49:20;;;;;;;11.80;6.47;;;;;;;6.51;100.00;102678.09;5066056;28;20082;-63
2022/10/19 02:52:03;;;;;;;6.65;5.35;;;;;;;6.45;100.00;102679.41;5057891;28;20508;-64
2022/10/19 02:54:29;;;;;;;6.65;5.05;;;;;;;6.45;100.00;102673.34;5066186;28;20051;-63
2022/10/19 02:56:55;;;;;;;11.77;5.65;;;;;;;6.43;100.00;102670.66;5058039;28;20040;-63
2022/10/19 02:59:20;;;;;;;9.38;4.70;;;;;;;6.42;100.00;102679.16;5069233;28;20043;-63
2022/10/19 03:01:45;;;;;;;8.18;5.68;;;;;;;6.39;100.00;102675.44;5069069;28;20037;-62
2022/10/19 03:04:11;;;;;;;9.10;5.70;;;;;;;6.40;100.00;102674.66;5057048;28;20040;-63
2022/10/19 03:06:36;;;;;;;7.10;4.55;;;;;;;6.37;100.00;102685.63;5063348;28;20493;-63
2022/10/19 03:09:02;;;;;;;6.00;5.03;;;;;;;6.35;100.00;102675.19;5059733;28;20085;-63
2022/10/19 03:11:27;;;;;;;6.85;5.03;;;;;;;6.31;100.00;102677.44;5068797;28;20024;-62
2022/10/19 03:13:53;;;;;;;6.05;4.80;;;;;;;6.28;100.00;102677.19;5067900;28;20033;-63
2022/10/19 03:16:18;;;;;;;8.35;4.78;;;;;;;6.24;100.00;102674.34;5069317;28;20028;-63
2022/10/19 03:18:43;;;;;;;9.52;5.18;;;;;;;6.24;100.00;102681.19;5069117;28;20512;-62
2022/10/19 03:21:11;;;;;;;7.22;4.78;;;;;;;6.24;100.00;102682.06;5068670;28;20036;-62
2022/10/19 03:23:38;;;;;;;6.25;4.93;;;;;;;6.23;100.00;102675.13;5068205;28;20037;-62
2022/10/19 03:26:04;;;;;;;8.75;6.55;;;;;;;6.23;100.00;102674.22;5068878;28;20211;-62
2022/10/19 03:28:30;;;;;;;7.88;4.93;;;;;;;6.27;100.00;102672.78;5068299;28;20496;-63
2022/10/19 03:30:56;;;;;;;7.20;5.40;;;;;;;6.30;100.00;102673.03;5068357;28;20036;-62
2022/10/19 03:33:21;;;;;;;10.77;5.97;;;;;;;6.34;100.00;102672.50;5067865;28;20529;-62
2022/10/19 03:35:47;;;;;;;12.00;6.50;;;;;;;6.36;100.00;102668.38;5068301;28;20070;-63
2022/10/19 03:38:12;;;;;;;9.57;5.20;;;;;;;6.33;100.00;102665.56;5067460;28;20028;-62
2022/10/19 03:40:38;;;;;;;9.32;5.43;;;;;;;6.34;100.00;102669.94;5054191;28;20032;-62
2022/10/19 03:43:03;;;;;;;8.93;4.85;;;;;;;6.30;100.00;102662.72;5068083;28;20140;-63
2022/10/19 03:45:29;;;;;;;7.57;4.95;;;;;;;6.28;100.00;102669.47;5068410;28;20043;-63
2022/10/19 03:47:54;;;;;;;5.03;4.50;;;;;;;6.27;100.00;102668.56;5053578;28;20116;-63
2022/10/19 03:50:20;;;;;;;7.00;4.95;;;;;;;6.24;100.00;102673.47;5066419;28;20447;-63
2022/10/19 03:52:45;;;;;;;5.28;4.32;;;;;;;6.18;100.00;102676.44;5067394;28;20283;-62
2022/10/19 03:55:11;;;;;;;5.35;4.72;;;;;;;6.13;100.00;102675.19;5059311;28;20056;-62
2022/10/19 03:57:36;;;;;;;7.10;4.97;;;;;;;6.08;100.00;102671.34;5047478;28;20115;-62
2022/10/19 04:00:03;;;;;;;6.07;5.35;;;;;;;6.03;100.00;102680.34;5067339;28;20036;-62
2022/10/19 04:02:28;;;;;;;6.25;4.30;;;;;;;5.99;100.00;102674.94;5067537;28;20031;-62
2022/10/19 04:04:54;;;;;;;6.15;4.68;;;;;;;5.97;100.00;102676.47;5053313;28;20357;-62
2022/10/19 04:07:19;;;;;;;7.45;4.65;;;;;;;5.98;100.00;102683.44;5067492;28;20098;-62
2022/10/19 04:09:44;;;;;;;7.70;4.72;;;;;;;6.00;100.00;102688.72;5066366;28;20021;-62
2022/10/19 04:12:09;;;;;;;5.75;4.32;;;;;;;5.97;100.00;102689.34;5067405;28;20048;-63
2022/10/19 04:14:35;;;;;;;7.15;4.47;;;;;;;5.96;100.00;102685.00;5066987;28;20611;-62
2022/10/19 04:17:01;;;;;;;6.47;3.75;;;;;;;5.91;100.00;102678.56;5067203;28;20033;-62
2022/10/19 04:19:26;;;;;;;7.68;3.92;;;;;;;5.85;100.00;102678.97;5067672;28;20440;-62
2022/10/19 04:21:51;;;;;;;8.25;4.55;;;;;;;5.80;100.00;102676.78;5052030;28;20061;-62
2022/10/19 04:24:17;;;;;;;6.82;4.60;;;;;;;5.75;100.00;102676.44;5060258;28;20035;-62
2022/10/19 04:26:48;;;;;;;6.00;4.30;;;;;;;5.70;100.00;102668.31;5058605;28;20153;-62
2022/10/19 04:29:15;;;;;;;7.03;4.07;;;;;;;5.66;100.00;102668.88;5052105;28;20051;-62
2022/10/19 04:31:40;;;;;;;8.02;4.43;;;;;;;5.64;100.00;102667.84;5064381;28;20472;-61
2022/10/19 04:34:06;;;;;;;6.90;4.63;;;;;;;5.61;100.00;102667.59;5066709;28;20030;-62
2022/10/19 04:36:32;;;;;;;6.88;4.63;;;;;;;5.58;100.00;102669.88;5067788;28;20074;-62
2022/10/19 04:38:57;;;;;;;5.75;4.70;;;;;;;5.56;100.00;102662.06;5064693;28;20029;-63
2022/10/19 04:41:23;;;;;;;9.37;5.03;;;;;;;5.56;100.00;102663.75;5064765;28;20020;-62
2022/10/19 04:43:53;;;;;;;6.82;5.47;;;;;;;5.54;100.00;102666.16;5066108;28;20041;-62
2022/10/19 04:46:19;;;;;;;7.97;5.07;;;;;;;5.51;100.00;102666.84;5060868;28;20480;-62
2022/10/19 04:48:46;;;;;;;8.97;5.07;;;;;;;5.45;100.00;102661.16;5061449;28;20032;-62
2022/10/19 04:51:11;;;;;;;5.65;4.95;;;;;;;5.45;100.00;102674.03;5052512;28;20024;-62
2022/10/19 04:53:38;;;;;;;9.80;5.67;;;;;;;5.44;100.00;102668.75;5056885;28;20595;-62
2022/10/19 04:56:06;;;;;;;7.07;5.57;;;;;;;5.41;100.00;102672.00;5063689;28;20082;-62
2022/10/19 04:58:32;;;;;;;10.83;6.07;;;;;;;5.41;100.00;102664.28;5065974;28;20051;-62
2022/10/19 05:00:57;;;;;;;7.20;5.93;;;;;;;5.39;100.00;102666.72;5052417;28;20548;-62
2022/10/19 05:03:23;;;;;;;13.20;6.00;;;;;;;5.37;100.00;102667.38;5049360;28;20022;-62
2022/10/19 05:05:48;;;;;;;11.70;6.47;;;;;;;5.37;100.00;102662.22;5051511;28;20136;-63
2022/10/19 05:08:14;;;;;;;10.23;6.50;;;;;;;5.35;100.00;102663.75;5053778;28;20024;-63
2022/10/19 05:10:39;;;;;;;8.43;5.30;;;;;;;5.34;100.00;102659.41;5053597;28;20025;-63
2022/10/19 05:13:05;;;;;;;10.25;6.55;;;;;;;5.34;100.00;102662.88;5054825;28;20465;-64
2022/10/19 05:15:30;;;;;;;8.32;5.88;;;;;;;5.36;100.00;102670.72;5057686;28;20024;-63
2022/10/19 05:17:56;;;;;;;8.27;6.43;;;;;;;5.38;100.00;102676.88;5058135;28;20017;-64
2022/10/19 05:20:22;;;;;;;11.73;6.23;;;;;;;5.38;100.00;102674.28;5057412;28;20021;-63
2022/10/19 05:22:48;;;;;;;8.20;6.17;;;;;;;5.37;100.00;102667.38;5053635;28;20090;-63
2022/10/19 05:25:13;;;;;;;9.27;5.50;;;;;;;5.35;100.00;102663.75;5066843;28;20028;-63
2022/10/19 05:27:39;;;;;;;10.70;6.43;;;;;;;5.33;100.00;102657.59;5072899;28;20108;-63
2022/10/19 05:30:05;;;;;;;8.43;5.83;;;;;;;5.31;100.00;102659.16;5071655;28;20051;-63
2022/10/19 05:32:31;;;;;;;7.50;6.03;;;;;;;5.31;100.00;102654.03;5071261;28;20461;-63
2022/10/19 05:34:56;;;;;;;10.88;7.10;;;;;;;5.31;100.00;102646.31;5072349;28;20385;-63
2022/10/19 05:37:22;;;;;;;9.30;6.63;;;;;;;5.28;100.00;102650.41;5066346;28;20056;-63
2022/10/19 05:39:47;;;;;;;9.50;6.57;;;;;;;5.27;100.00;102645.16;5058870;28;21367;-64
2022/10/19 05:42:12;;;;;;;9.73;6.30;;;;;;;5.23;100.00;102638.84;5067064;28;20424;-63
2022/10/19 05:44:37;;;;;;;9.87;7.57;;;;;;;5.22;100.00;102644.75;5072507;28;20267;-63
2022/10/19 05:47:03;;;;;;;7.33;6.50;;;;;;;5.20;100.00;102636.00;5069169;28;20032;-63
2022/10/19 05:49:28;;;;;;;13.20;7.37;;;;;;;5.19;100.00;102641.03;5073412;28;20499;-62
2022/10/19 05:51:54;;;;;;;14.57;7.93;;;;;;;5.20;100.00;102643.72;5079210;28;20021;-63
2022/10/19 05:54:19;;;;;;;12.53;7.70;;;;;;;5.18;100.00;102634.97;5069818;28;20028;-63
2022/10/19 05:56:45;;;;;;;12.30;7.80;;;;;;;5.17;100.00;102638.34;5069460;28;20055;-63
2022/10/19 05:59:15;;;;;;;12.80;8.27;;;;;;;5.16;100.00;102645.13;5070822;28;20500;-63
2022/10/19 06:01:41;;;;;;;13.07;8.50;;;;;;;5.13;100.00;102642.31;5057948;28;20579;-62
2022/10/19 06:04:06;;;;;;;10.20;8.77;;;;;;;5.12;100.00;102640.53;5068508;28;20034;-62
2022/10/19 06:06:32;;;;;;;12.87;8.50;;;;;;;5.16;100.00;102649.41;5071283;28;20453;-63
2022/10/19 06:08:59;;;;;;;9.57;8.30;;;;;;;5.24;100.00;102650.91;5071149;28;20060;-62
2022/10/19 06:11:29;;;;;;;13.77;8.17;;;;;;;5.28;100.00;102639.22;5071003;28;20360;-62
2022/10/19 06:13:57;;;;;;;14.48;8.13;;;;;;;5.32;100.00;102632.66;5061573;28;20032;-63
2022/10/19 06:16:24;;;;;;;12.47;8.13;;;;;;;5.35;100.00;102630.34;5064799;28;20025;-63
2022/10/19 06:18:49;;;;;;;9.73;7.70;;;;;;;5.36;100.00;102625.31;5067133;28;20027;-63
2022/10/19 06:21:19;;;;;;;11.70;8.63;;;;;;;5.34;100.00;102628.56;5063263;28;20493;-62
2022/10/19 06:23:50;;;;;;;14.97;8.40;;;;;;;5.34;100.00;102625.97;5065304;28;20051;-63
2022/10/19 06:26:15;;;;;;;17.77;10.18;;;;;;;5.33;100.00;102629.31;5069553;28;20031;-63
2022/10/19 06:28:42;;;;;;;18.40;11.27;;;;;;;5.35;100.00;102625.19;5062426;28;20020;-63
2022/10/19 06:31:08;;;;;;;16.23;9.73;;;;;;;5.38;100.00;102625.44;5068979;28;20377;-63
2022/10/19 06:33:33;;;;;;;18.23;10.50;;;;;;;5.38;100.00;102628.00;5066084;28;20052;-63
2022/10/19 06:36:13;;;;;;;16.87;10.03;;;;;;;5.37;100.00;102629.72;5079723;28;20063;-63
2022/10/19 06:38:39;;;;;;;18.50;10.27;;;;;;;5.37;100.00;102627.13;5073752;28;20022;-63
2022/10/19 06:41:05;;;;;;;15.27;9.83;;;;;;;5.40;100.00;102634.19;5067537;28;20237;-63
2022/10/19 06:43:30;;;;;;;17.57;10.63;;;;;;;5.40;100.00;102637.66;5066282;28;20466;-63
2022/10/19 06:45:56;;;;;;;17.10;11.53;;;;;;;5.43;100.00;102637.03;5072082;28;20028;-63
2022/10/19 06:48:21;;;;;;;19.53;11.57;;;;;;;5.49;100.00;102644.31;5083723;28;20073;-63
2022/10/19 06:50:54;;;;;;;17.50;11.20;;;;;;;5.52;100.00;102648.03;5067123;28;20024;-63
2022/10/19 06:53:20;;;;;;;16.37;11.83;;;;;;;5.57;100.00;102645.88;5055195;28;20026;-63
2022/10/19 06:55:45;;;;;;;19.50;11.50;;;;;;;5.60;100.00;102645.19;5049776;28;20400;-64
2022/10/19 06:58:10;;;;;;;16.85;11.73;;;;;;;5.64;100.00;102647.25;5050580;28;20017;-63
2022/10/19 07:00:35;;;;;;;15.63;11.23;;;;;;;5.69;100.00;102640.81;5048260;28;20017;-63
2022/10/19 07:03:01;;;;;;;15.07;11.20;;;;;;;5.74;100.00;102636.94;5053132;28;20514;-63
2022/10/19 07:05:26;;;;;;;14.18;11.02;;;;;;;5.79;100.00;102639.00;5053502;28;20042;-63
2022/10/19 07:07:51;;;;;;;12.93;11.43;;;;;;;5.83;100.00;102643.63;5055803;28;20124;-63
2022/10/19 07:10:17;;;;;;;12.67;10.63;;;;;;;5.89;100.00;102633.81;5050283;28;20374;-63
2022/10/19 07:12:42;;;;;;;17.55;12.18;;;;;;;5.94;100.00;102631.59;5050771;28;20024;-63
2022/10/19 07:15:08;;;;;;;15.25;11.75;;;;;;;5.99;100.00;102636.31;5050622;28;20017;-62
2022/10/19 07:17:33;;;;;;;14.33;10.70;;;;;;;6.04;100.00;102638.38;5055458;28;20064;-63
2022/10/19 07:19:58;;;;;;;13.27;11.17;;;;;;;6.08;100.00;102643.03;5055536;28;20107;-63
2022/10/19 07:22:24;;;;;;;15.13;11.25;;;;;;;6.12;100.00;102642.47;5048395;28;20061;-62
2022/10/19 07:24:49;;;;;;;15.57;11.23;;;;;;;6.17;100.00;102643.75;5051259;28;20029;-63
2022/10/19 07:27:14;;;;;;;13.10;10.93;;;;;;;6.20;100.00;102641.44;5061518;28;20032;-63
2022/10/19 07:29:40;;;;;;;12.85;11.48;;;;;;;6.26;100.00;102640.13;5062108;28;20032;-62
2022/10/19 07:32:05;;;;;;;16.35;11.43;;;;;;;6.32;100.00;102641.50;5066018;28;20555;-63
2022/10/19 07:34:31;;;;;;;16.17;10.87;;;;;;;6.39;100.00;102637.72;5059203;28;20107;-63
2022/10/19 07:36:56;;;;;;;14.93;11.27;;;;;;;6.45;100.00;102640.78;5061538;28;20059;-63
2022/10/19 07:39:21;;;;;;;13.18;11.02;;;;;;;6.53;100.00;102650.78;5083003;28;20031;-63
2022/10/19 07:41:47;;;;;;;14.18;11.27;;;;;;;6.58;100.00;102639.16;5058171;28;20025;-63
2022/10/19 07:44:14;;;;;;;14.25;10.35;;;;;;;6.64;100.00;102634.47;5047978;28;20049;-63
2022/10/19 07:46:39;;;;;;;14.85;10.57;;;;;;;6.70;100.00;102631.47;5051684;28;20033;-63
2022/10/19 07:49:08;;;;;;;11.57;10.30;;;;;;;6.76;100.00;102628.47;5051947;28;20035;-63
2022/10/19 07:51:35;;;;;;;10.88;9.80;;;;;;;6.81;100.00;102622.88;5063673;28;20055;-63
2022/10/19 07:54:00;;;;;;;15.27;10.80;;;;;;;6.88;100.00;102620.75;5058909;28;20035;-63
2022/10/19 07:56:27;;;;;;;16.08;10.55;;;;;;;6.96;100.00;102628.28;5062733;28;20024;-63
2022/10/19 07:58:54;;;;;;;15.00;10.35;;;;;;;7.04;100.00;102617.66;5060819;28;20056;-64
2022/10/19 08:01:26;;;;;;;13.93;9.90;;;;;;;7.09;100.00;102619.81;5061702;28;20415;-64
2022/10/19 08:03:53;;;;;;;11.50;9.75;;;;;;;7.18;100.00;102619.59;5061631;28;20096;-64
2022/10/19 08:06:19;;;;;;;11.45;10.15;;;;;;;7.31;100.00;102625.66;5050464;28;20035;-64
2022/10/19 08:08:45;;;;;;;16.83;12.30;;;;;;;7.77;100.00;102614.34;5059651;28;20028;-64
2022/10/19 08:11:19;;;;;;;12.48;9.35;;;;;;;8.50;100.00;102608.19;5061471;28;20016;-64
2022/10/19 08:13:45;;;;;;;11.43;7.43;;;;;;;8.97;100.00;102611.34;5065993;28;20392;-64
2022/10/19 08:16:24;;;;;;;7.70;6.68;;;;;;;9.27;100.00;102616.75;5051364;28;20025;-64
2022/10/19 08:18:51;;;;;;;11.55;6.28;;;;;;;9.54;100.00;102621.94;5051415;28;20021;-64
2022/10/19 08:21:16;;;;;;;12.40;7.30;;;;;;;9.68;100.00;102625.44;5046128;28;20021;-64
2022/10/19 08:23:42;;;;;;;10.10;7.40;;;;;;;9.68;100.00;102625.44;5052773;28;20028;-64
2022/10/19 08:26:07;;;;;;;13.57;8.10;;;;;;;9.68;100.00;102627.13;5065993;28;20095;-64
2022/10/19 08:28:32;;;;;;;14.90;8.48;;;;;;;9.56;100.00;102620.38;5066466;28;20021;-64
2022/10/19 08:30:58;;;;;;;9.23;6.72;;;;;;;9.54;100.00;102613.28;5059450;28;20063;-64
2022/10/19 08:33:24;;;;;;;11.23;5.97;;;;;;;9.54;100.00;102606.44;5064236;28;20040;-64
2022/10/19 08:35:50;;;;;;;12.10;5.70;;;;;;;9.60;100.00;102601.66;5053286;28;20471;-64
2022/10/19 08:38:15;;;;;;;12.00;5.78;;;;;;;9.90;100.00;102590.56;5051976;28;20033;-64
2022/10/19 08:40:43;;;;;;;11.50;5.93;;;;;;;10.23;100.00;102589.97;5049987;28;20104;-64
2022/10/19 08:43:19;;;;;;;9.60;6.03;;;;;;;10.65;100.00;102578.66;5056942;28;20047;-64
2022/10/19 08:46:21;;;;;;;11.65;4.80;;;;;;;11.08;100.00;102587.16;5064789;28;20044;-65
2022/10/19 08:48:46;;;;;;;10.48;5.05;;;;;;;11.43;100.00;102580.50;5058353;28;20497;-65
2022/10/19 08:51:12;;;;;;;11.95;4.78;;;;;;;11.68;100.00;102573.16;5064574;28;20044;-64
2022/10/19 08:53:37;;;;;;;9.20;4.43;;;;;;;11.82;100.00;102579.16;5070557;28;20020;-65
2022/10/19 08:56:33;;;;;;;8.30;4.45;;;;;;;11.99;100.00;102573.16;5066925;28;20033;-65
2022/10/19 08:59:25;;;;;;;7.07;4.28;;;;;;;12.05;100.00;102570.00;5064956;28;20017;-64
2022/10/19 09:01:58;;;;;;;;;;;;;;;11.97;100.00;102576.47;5056250;28;20020;-64
2022/10/19 09:04:38;;;;;;;8.25;4.32;;;;;;;11.82;100.00;102572.22;5066939;28;20100;-64
2022/10/19 09:07:22;;;;;;;7.00;4.35;;;;;;;11.66;100.00;102567.91;5064338;28;20480;-65
2022/10/19 09:09:56;;;;;;;11.13;4.65;;;;;;;11.52;100.00;102561.94;5050144;28;20819;-64
2022/10/19 09:12:46;;;;;;;7.80;4.07;;;;;;;11.38;100.00;102553.38;5066559;28;20024;-64
2022/10/19 09:15:16;;;;;;;9.25;3.92;;;;;;;11.33;100.00;102560.03;5050252;28;20438;-65
2022/10/19 09:17:42;;;;;;;8.55;3.60;;;;;;;11.18;100.00;102563.53;5058680;28;20031;-64
2022/10/19 09:20:13;;;;;;;6.65;4.00;;;;;;;11.11;100.00;102564.00;5062334;28;20032;-64
2022/10/19 09:22:40;;;;;;;6.60;3.50;;;;;;;11.05;100.00;102564.53;5057101;28;20032;-64
2022/10/19 09:25:17;;;;;;;5.97;3.70;;;;;;;10.96;100.00;102567.47;5046862;28;20029;-64
2022/10/19 09:27:46;;;;;;;8.10;3.80;;;;;;;10.92;100.00;102578.47;5046824;28;20033;-64
2022/10/19 09:30:20;;;;;;;8.48;3.33;;;;;;;10.83;100.00;102589.19;5051091;28;20020;-65
2022/10/19 09:32:47;;;;;;;9.00;4.40;;;;;;;10.77;100.00;102579.38;5050901;28;20094;-64
2022/10/19 09:35:45;;;;;;;7.38;3.60;;;;;;;10.73;100.00;102577.41;5062865;28;20384;-65
2022/10/19 09:38:14;;;;;;;5.95;3.55;;;;;;;10.75;100.00;102574.91;5046164;28;20392;-65
2022/10/19 09:40:39;;;;;;;7.78;3.63;;;;;;;10.74;100.00;102567.94;5062752;28;20345;-65
2022/10/19 09:43:19;;;;;;;8.43;3.70;;;;;;;10.75;100.00;102565.44;5051167;28;20080;-65
2022/10/19 09:45:51;;;;;;;7.72;3.90;;;;;;;10.79;100.00;102569.09;5065292;28;20110;-64
2022/10/19 09:48:38;;;;;;;12.20;4.05;;;;;;;10.81;100.00;102558.00;5064507;28;20028;-65
2022/10/19 09:51:12;;;;;;;6.28;3.85;;;;;;;10.87;100.00;102549.69;5063402;28;20107;-65
2022/10/19 09:53:43;;;;;;;7.85;3.38;;;;;;;10.91;100.00;102546.47;5060364;28;20043;-64
2022/10/19 09:56:17;;;;;;;6.50;3.80;;;;;;;10.97;100.00;102550.22;5054781;28;20020;-64
2022/10/19 09:58:50;;;;;;;7.50;3.72;;;;;;;11.01;100.00;102553.06;5055838;28;20021;-65
2022/10/19 10:01:37;;;;;;;8.63;3.53;;;;;;;11.05;100.00;102544.69;5066840;28;20392;-65
2022/10/19 10:04:08;;;;;;;6.18;3.92;;;;;;;11.10;100.00;102542.31;5066374;28;20484;-65
2022/10/19 10:06:37;;;;;;;7.10;3.80;;;;;;;11.14;100.00;102533.03;5068886;28;20262;-64
2022/10/19 10:09:03;;;;;;;10.88;3.88;;;;;;;11.16;100.00;102531.41;5066790;28;20834;-64
2022/10/19 10:11:31;;;;;;;6.03;2.95;;;;;;;11.19;100.00;102526.38;5057554;28;20092;-64
2022/10/19 10:14:02;;;;;;;7.70;3.30;;;;;;;11.23;100.00;102528.34;5070168;28;20531;-65
2022/10/19 10:16:29;;;;;;;7.30;3.53;;;;;;;11.27;100.00;102514.75;5068769;28;20037;-65
2022/10/19 10:18:58;;;;;;;9.55;3.25;;;;;;;11.31;100.00;102525.31;5070059;28;20016;-65
2022/10/19 10:21:30;;;;;;;4.65;2.72;;;;;;;11.32;100.00;102522.78;5068585;28;20048;-65
2022/10/19 10:24:15;;;;;;;6.40;2.58;;;;;;;11.37;100.00;102526.53;5069542;28;20059;-65
2022/10/19 10:26:53;;;;;;;7.00;3.00;;;;;;;11.40;100.00;102531.88;5069632;28;20313;-65
2022/10/19 10:29:20;;;;;;;6.30;2.90;;;;;;;11.43;100.00;102525.97;5069768;28;20055;-65
2022/10/19 10:31:58;;;;;;;6.53;2.78;;;;;;;11.48;100.00;102531.41;5069289;28;20103;-64
2022/10/19 10:34:35;;;;;;;6.40;2.95;;;;;;;11.53;100.00;102520.47;5069151;28;20028;-65
2022/10/19 10:37:03;;;;;;;8.30;3.17;;;;;;;11.57;100.00;102518.03;5068629;28;20598;-64
2022/10/19 10:39:29;;;;;;;7.60;2.83;;;;;;;11.62;100.00;102511.44;5054839;28;20021;-65
2022/10/19 10:41:56;;;;;;;6.78;3.22;;;;;;;11.67;100.00;102509.97;5067868;28;20237;-65
2022/10/19 10:44:25;;;;;;;9.45;4.05;;;;;;;11.69;100.00;102502.25;5066788;28;20460;-65
2022/10/19 10:46:54;;;;;;;7.50;2.95;;;;;;;11.76;100.00;102510.44;5060103;28;20031;-65
2022/10/19 10:49:23;;;;;;;5.90;2.97;;;;;;;11.83;100.00;102513.38;5059749;28;20048;-65
2022/10/19 10:51:55;;;;;;;7.15;3.65;;;;;;;11.84;100.00;102508.28;5065307;28;20029;-65
2022/10/19 10:54:29;;;;;;;9.75;3.25;;;;;;;11.90;100.00;102510.31;5066501;28;20033;-65
2022/10/19 10:57:17;;;;;;;10.40;3.72;;;;;;;11.97;100.00;102507.22;5063935;28;20030;-64
2022/10/19 11:00:06;;;;;;;8.07;4.07;;;;;;;12.05;100.00;102497.25;5060872;28;20037;-65
2022/10/19 11:02:40;;;;;;;5.97;3.53;;;;;;;12.12;100.00;102488.97;5061307;28;20067;-65
2022/10/19 11:05:32;;;;;;;6.78;3.38;;;;;;;12.21;100.00;102483.38;5066613;28;20051;-65
2022/10/19 11:08:00;;;;;;;9.57;3.00;;;;;;;12.28;100.00;102489.78;5060668;28;20025;-65
2022/10/19 11:10:32;;;;;;;5.45;3.20;;;;;;;12.38;100.00;102485.94;5055710;28;20039;-65
2022/10/19 11:13:09;;;;;;;9.73;3.95;;;;;;;12.48;100.00;102482.97;5067168;28;20027;-65
2022/10/19 11:15:43;;;;;;;8.30;3.60;;;;;;;12.59;100.00;102474.84;5065634;28;20507;-65
2022/10/19 11:18:23;;;;;;;8.23;4.57;;;;;;;12.69;100.00;102479.69;5056626;28;20372;-65
2022/10/19 11:20:59;;;;;;;5.63;3.00;;;;;;;12.83;100.00;102474.25;5066552;28;20060;-65
2022/10/19 11:23:39;;;;;;;7.22;2.90;;;;;;;12.95;99.61;102472.25;5066622;28;20566;-65
2022/10/19 11:26:10;;;;;;;9.13;3.50;;;;;;;13.03;96.94;102463.91;5062422;28;20127;-65
2022/10/19 11:29:05;;;;;;;6.35;3.30;;;;;;;13.19;98.85;102455.13;5063861;28;20127;-65